sensor_id;sensor_type;location;lat;lon;timestamp;temperature;humidity
19044;DHT22;9654;52.302;8.120;2023-08-24T00:01:19;17.20;99.90
19044;DHT22;9654;52.302;8.120;2023-08-24T00:03:45;17.10;99.90
19044;DHT22;9654;52.302;8.120;2023-08-24T00:06:13;17.10;99.90
19044;DHT22;9654;52.302;8.120;2023-08-24T00:08:40;17.00;99.90
19044;DHT22;9654;52.302;8.120;2023-08-24T00:11:08;17.00;99.90
19044;DHT22;9654;52.302;8.120;2023-08-24T00:13:40;17.00;99.90
19044;DHT22;9654;52.302;8.120;2023-08-24T00:16:07;17.00;99.90
19044;DHT22;9654;52.302;8.120;2023-08-24T00:18:34;16.90;99.90
19044;DHT22;9654;52.302;8.120;2023-08-24T00:21:01;16.90;99.90
19044;DHT22;9654;52.302;8.120;2023-08-24T00:23:28;16.90;99.90
19044;DHT22;9654;52.302;8.120;2023-08-24T00:25:54;16.80;99.90
19044;DHT22;9654;52.302;8.120;2023-08-24T00:28:22;16.80;99.90
19044;DHT22;9654;52.302;8.120;2023-08-24T00:30:49;16.80;99.90
19044;DHT22;9654;52.302;8.120;2023-08-24T00:33:16;16.70;99.90
19044;DHT22;9654;52.302;8.120;2023-08-24T00:35:43;16.70;99.90
19044;DHT22;9654;52.302;8.120;2023-08-24T00:38:10;16.60;99.90
19044;DHT22;9654;52.302;8.120;2023-08-24T00:40:37;16.60;99.90
19044;DHT22;9654;52.302;8.120;2023-08-24T00:43:05;16.50;99.90
19044;DHT22;9654;52.302;8.120;2023-08-24T00:45:33;16.50;99.90
19044;DHT22;9654;52.302;8.120;2023-08-24T00:48:02;16.50;99.90
19044;DHT22;9654;52.302;8.120;2023-08-24T00:50:29;16.40;99.90
19044;DHT22;9654;52.302;8.120;2023-08-24T00:52:56;16.40;99.90
19044;DHT22;9654;52.302;8.120;2023-08-24T00:55:23;16.30;99.90
19044;DHT22;9654;52.302;8.120;2023-08-24T00:57:50;16.30;99.90
19044;DHT22;9654;52.302;8.120;2023-08-24T01:00:17;16.30;99.90
19044;DHT22;9654;52.302;8.120;2023-08-24T01:02:46;16.30;99.90
19044;DHT22;9654;52.302;8.120;2023-08-24T01:05:13;16.30;99.90
19044;DHT22;9654;52.302;8.120;2023-08-24T01:07:40;16.30;99.90
19044;DHT22;9654;52.302;8.120;2023-08-24T01:10:09;16.30;99.90
19044;DHT22;9654;52.302;8.120;2023-08-24T01:12:52;16.30;99.90
19044;DHT22;9654;52.302;8.120;2023-08-24T01:15:29;16.20;99.90
19044;DHT22;9654;52.302;8.120;2023-08-24T01:18:04;16.20;99.90
19044;DHT22;9654;52.302;8.120;2023-08-24T01:20:31;16.10;99.90
19044;DHT22;9654;52.302;8.120;2023-08-24T01:23:09;16.00;99.90
19044;DHT22;9654;52.302;8.120;2023-08-24T01:25:45;16.00;99.90
19044;DHT22;9654;52.302;8.120;2023-08-24T01:28:15;15.90;99.90
19044;DHT22;9654;52.302;8.120;2023-08-24T01:30:43;15.90;99.90
19044;DHT22;9654;52.302;8.120;2023-08-24T01:33:10;15.90;99.90
19044;DHT22;9654;52.302;8.120;2023-08-24T01:35:39;15.80;99.90
19044;DHT22;9654;52.302;8.120;2023-08-24T01:38:06;15.80;99.90
19044;DHT22;9654;52.302;8.120;2023-08-24T01:40:39;15.80;99.90
19044;DHT22;9654;52.302;8.120;2023-08-24T01:43:10;15.70;99.90
19044;DHT22;9654;52.302;8.120;2023-08-24T01:45:41;15.70;99.90
19044;DHT22;9654;52.302;8.120;2023-08-24T01:48:09;15.70;99.90
19044;DHT22;9654;52.302;8.120;2023-08-24T01:50:37;15.80;99.90
19044;DHT22;9654;52.302;8.120;2023-08-24T01:53:04;15.70;99.90
19044;DHT22;9654;52.302;8.120;2023-08-24T01:55:31;15.80;99.90
19044;DHT22;9654;52.302;8.120;2023-08-24T01:57:58;15.80;99.90
19044;DHT22;9654;52.302;8.120;2023-08-24T02:00:25;15.80;99.90
19044;DHT22;9654;52.302;8.120;2023-08-24T02:02:53;15.70;99.90
19044;DHT22;9654;52.302;8.120;2023-08-24T02:05:20;15.70;99.90
19044;DHT22;9654;52.302;8.120;2023-08-24T02:07:47;15.70;99.90
19044;DHT22;9654;52.302;8.120;2023-08-24T02:10:14;15.60;99.90
19044;DHT22;9654;52.302;8.120;2023-08-24T02:12:41;15.60;99.90
19044;DHT22;9654;52.302;8.120;2023-08-24T02:15:08;15.50;99.90
19044;DHT22;9654;52.302;8.120;2023-08-24T02:17:35;15.50;99.90
19044;DHT22;9654;52.302;8.120;2023-08-24T02:20:04;15.50;99.90
19044;DHT22;9654;52.302;8.120;2023-08-24T02:22:33;15.50;99.90
19044;DHT22;9654;52.302;8.120;2023-08-24T02:25:00;15.50;99.90
19044;DHT22;9654;52.302;8.120;2023-08-24T02:27:26;15.50;99.90
19044;DHT22;9654;52.302;8.120;2023-08-24T02:29:53;15.50;99.90
19044;DHT22;9654;52.302;8.120;2023-08-24T02:32:20;15.40;99.90
19044;DHT22;9654;52.302;8.120;2023-08-24T02:34:47;15.50;99.90
19044;DHT22;9654;52.302;8.120;2023-08-24T02:37:15;15.40;99.90
19044;DHT22;9654;52.302;8.120;2023-08-24T02:39:42;15.40;99.90
19044;DHT22;9654;52.302;8.120;2023-08-24T02:42:09;15.40;99.90
19044;DHT22;9654;52.302;8.120;2023-08-24T02:44:35;15.40;99.90
19044;DHT22;9654;52.302;8.120;2023-08-24T02:47:02;15.40;99.90
19044;DHT22;9654;52.302;8.120;2023-08-24T02:49:29;15.40;99.90
19044;DHT22;9654;52.302;8.120;2023-08-24T02:51:56;15.40;99.90
19044;DHT22;9654;52.302;8.120;2023-08-24T02:54:24;15.30;99.90
19044;DHT22;9654;52.302;8.120;2023-08-24T02:56:51;15.40;99.90
19044;DHT22;9654;52.302;8.120;2023-08-24T02:59:17;15.40;99.90
19044;DHT22;9654;52.302;8.120;2023-08-24T03:01:44;15.50;99.90
19044;DHT22;9654;52.302;8.120;2023-08-24T03:04:11;15.50;99.90
19044;DHT22;9654;52.302;8.120;2023-08-24T03:06:38;15.60;99.90
19044;DHT22;9654;52.302;8.120;2023-08-24T03:09:04;15.50;99.90
19044;DHT22;9654;52.302;8.120;2023-08-24T03:11:32;15.50;99.90
19044;DHT22;9654;52.302;8.120;2023-08-24T03:13:59;15.50;99.90
19044;DHT22;9654;52.302;8.120;2023-08-24T03:16:26;15.50;99.90
19044;DHT22;9654;52.302;8.120;2023-08-24T03:18:53;15.60;99.90
19044;DHT22;9654;52.302;8.120;2023-08-24T03:21:20;15.60;99.90
19044;DHT22;9654;52.302;8.120;2023-08-24T03:23:47;15.60;99.90
19044;DHT22;9654;52.302;8.120;2023-08-24T03:26:13;15.60;99.90
19044;DHT22;9654;52.302;8.120;2023-08-24T03:28:42;15.60;99.90
19044;DHT22;9654;52.302;8.120;2023-08-24T03:31:09;15.60;99.90
19044;DHT22;9654;52.302;8.120;2023-08-24T03:33:36;15.70;99.90
19044;DHT22;9654;52.302;8.120;2023-08-24T03:36:03;15.70;99.90
19044;DHT22;9654;52.302;8.120;2023-08-24T03:38:30;15.70;99.90
19044;DHT22;9654;52.302;8.120;2023-08-24T03:41:00;15.70;99.90
19044;DHT22;9654;52.302;8.120;2023-08-24T03:43:31;15.70;99.90
19044;DHT22;9654;52.302;8.120;2023-08-24T03:45:59;15.80;99.90
19044;DHT22;9654;52.302;8.120;2023-08-24T03:48:26;15.80;99.90
19044;DHT22;9654;52.302;8.120;2023-08-24T03:50:54;15.80;99.90
19044;DHT22;9654;52.302;8.120;2023-08-24T03:53:21;15.90;99.90
19044;DHT22;9654;52.302;8.120;2023-08-24T03:55:50;15.90;99.90
19044;DHT22;9654;52.302;8.120;2023-08-24T03:58:17;15.90;99.90
19044;DHT22;9654;52.302;8.120;2023-08-24T04:00:44;15.90;99.90
19044;DHT22;9654;52.302;8.120;2023-08-24T04:03:12;16.00;99.90
19044;DHT22;9654;52.302;8.120;2023-08-24T04:05:39;16.00;99.90
19044;DHT22;9654;52.302;8.120;2023-08-24T04:08:06;16.00;99.90
19044;DHT22;9654;52.302;8.120;2023-08-24T04:10:33;16.00;99.90
19044;DHT22;9654;52.302;8.120;2023-08-24T04:13:00;16.00;99.90
19044;DHT22;9654;52.302;8.120;2023-08-24T04:15:27;16.00;99.90
19044;DHT22;9654;52.302;8.120;2023-08-24T04:17:54;16.00;99.90
19044;DHT22;9654;52.302;8.120;2023-08-24T04:20:23;16.00;99.90
19044;DHT22;9654;52.302;8.120;2023-08-24T04:22:50;16.10;99.90
19044;DHT22;9654;52.302;8.120;2023-08-24T04:25:17;16.10;99.90
19044;DHT22;9654;52.302;8.120;2023-08-24T04:27:44;16.10;99.90
19044;DHT22;9654;52.302;8.120;2023-08-24T04:30:11;16.20;99.90
19044;DHT22;9654;52.302;8.120;2023-08-24T04:32:39;16.20;99.90
19044;DHT22;9654;52.302;8.120;2023-08-24T04:35:07;16.30;99.90
19044;DHT22;9654;52.302;8.120;2023-08-24T04:37:35;16.30;99.90
19044;DHT22;9654;52.302;8.120;2023-08-24T04:40:03;16.30;99.90
19044;DHT22;9654;52.302;8.120;2023-08-24T04:42:31;16.30;99.90
19044;DHT22;9654;52.302;8.120;2023-08-24T04:44:58;16.40;99.90
19044;DHT22;9654;52.302;8.120;2023-08-24T04:47:25;16.40;99.90
19044;DHT22;9654;52.302;8.120;2023-08-24T04:49:51;16.40;99.90
19044;DHT22;9654;52.302;8.120;2023-08-24T04:52:18;16.40;99.90
19044;DHT22;9654;52.302;8.120;2023-08-24T04:54:46;16.40;99.90
19044;DHT22;9654;52.302;8.120;2023-08-24T04:57:13;16.40;99.90
19044;DHT22;9654;52.302;8.120;2023-08-24T04:59:40;16.40;99.90
19044;DHT22;9654;52.302;8.120;2023-08-24T05:02:07;16.40;99.90
19044;DHT22;9654;52.302;8.120;2023-08-24T05:04:34;16.40;99.90
19044;DHT22;9654;52.302;8.120;2023-08-24T05:07:01;16.40;99.90
19044;DHT22;9654;52.302;8.120;2023-08-24T05:09:27;16.40;99.90
19044;DHT22;9654;52.302;8.120;2023-08-24T05:11:56;16.40;99.90
19044;DHT22;9654;52.302;8.120;2023-08-24T05:14:22;16.40;99.90
19044;DHT22;9654;52.302;8.120;2023-08-24T05:16:49;16.40;99.90
19044;DHT22;9654;52.302;8.120;2023-08-24T05:19:16;16.40;99.90
19044;DHT22;9654;52.302;8.120;2023-08-24T05:21:43;16.40;99.90
19044;DHT22;9654;52.302;8.120;2023-08-24T05:24:09;16.50;99.90
19044;DHT22;9654;52.302;8.120;2023-08-24T05:26:36;16.40;99.90
19044;DHT22;9654;52.302;8.120;2023-08-24T05:29:04;16.50;99.90
19044;DHT22;9654;52.302;8.120;2023-08-24T05:31:32;16.50;99.90
19044;DHT22;9654;52.302;8.120;2023-08-24T05:33:58;16.50;99.90
19044;DHT22;9654;52.302;8.120;2023-08-24T05:36:25;16.50;99.90
19044;DHT22;9654;52.302;8.120;2023-08-24T05:38:52;16.50;99.90
19044;DHT22;9654;52.302;8.120;2023-08-24T05:41:22;16.50;99.90
19044;DHT22;9654;52.302;8.120;2023-08-24T05:43:48;16.50;99.90
19044;DHT22;9654;52.302;8.120;2023-08-24T05:46:19;16.50;99.90
19044;DHT22;9654;52.302;8.120;2023-08-24T05:48:46;16.60;99.90
19044;DHT22;9654;52.302;8.120;2023-08-24T05:51:12;16.60;99.90
19044;DHT22;9654;52.302;8.120;2023-08-24T05:53:39;16.70;99.90
19044;DHT22;9654;52.302;8.120;2023-08-24T05:56:07;16.70;99.90
19044;DHT22;9654;52.302;8.120;2023-08-24T05:58:34;16.70;99.90
19044;DHT22;9654;52.302;8.120;2023-08-24T06:01:00;16.80;99.90
19044;DHT22;9654;52.302;8.120;2023-08-24T06:03:28;16.80;99.90
19044;DHT22;9654;52.302;8.120;2023-08-24T06:06:01;16.90;99.90
19044;DHT22;9654;52.302;8.120;2023-08-24T06:08:28;17.00;99.90
19044;DHT22;9654;52.302;8.120;2023-08-24T06:10:55;17.10;99.90
19044;DHT22;9654;52.302;8.120;2023-08-24T06:13:22;17.10;99.90
19044;DHT22;9654;52.302;8.120;2023-08-24T06:15:50;17.20;99.90
19044;DHT22;9654;52.302;8.120;2023-08-24T06:18:17;17.20;99.90
19044;DHT22;9654;52.302;8.120;2023-08-24T06:20:45;17.20;99.90
19044;DHT22;9654;52.302;8.120;2023-08-24T06:23:14;17.20;99.90
19044;DHT22;9654;52.302;8.120;2023-08-24T06:25:41;17.20;99.90
19044;DHT22;9654;52.302;8.120;2023-08-24T06:28:08;17.20;99.90
19044;DHT22;9654;52.302;8.120;2023-08-24T06:30:37;17.20;99.90
19044;DHT22;9654;52.302;8.120;2023-08-24T06:33:05;17.30;99.90
19044;DHT22;9654;52.302;8.120;2023-08-24T06:35:32;17.50;99.90
19044;DHT22;9654;52.302;8.120;2023-08-24T06:38:00;17.70;99.90
19044;DHT22;9654;52.302;8.120;2023-08-24T06:40:28;17.80;99.90
19044;DHT22;9654;52.302;8.120;2023-08-24T06:42:55;17.90;99.90
19044;DHT22;9654;52.302;8.120;2023-08-24T06:45:22;18.10;99.90
19044;DHT22;9654;52.302;8.120;2023-08-24T06:47:48;18.10;99.90
19044;DHT22;9654;52.302;8.120;2023-08-24T06:50:17;18.20;99.90
19044;DHT22;9654;52.302;8.120;2023-08-24T06:52:44;18.30;99.90
19044;DHT22;9654;52.302;8.120;2023-08-24T06:55:13;18.50;99.90
19044;DHT22;9654;52.302;8.120;2023-08-24T06:57:40;18.60;99.90
19044;DHT22;9654;52.302;8.120;2023-08-24T07:00:07;18.70;99.90
19044;DHT22;9654;52.302;8.120;2023-08-24T07:02:35;18.80;99.90
19044;DHT22;9654;52.302;8.120;2023-08-24T07:05:02;18.90;99.90
19044;DHT22;9654;52.302;8.120;2023-08-24T07:07:34;19.00;99.90
19044;DHT22;9654;52.302;8.120;2023-08-24T07:10:00;19.10;99.90
19044;DHT22;9654;52.302;8.120;2023-08-24T07:12:30;19.20;99.90
19044;DHT22;9654;52.302;8.120;2023-08-24T07:14:57;19.40;99.90
19044;DHT22;9654;52.302;8.120;2023-08-24T07:17:24;19.50;99.90
19044;DHT22;9654;52.302;8.120;2023-08-24T07:19:51;19.60;99.90
19044;DHT22;9654;52.302;8.120;2023-08-24T07:22:19;19.80;99.90
19044;DHT22;9654;52.302;8.120;2023-08-24T07:24:46;19.90;99.90
19044;DHT22;9654;52.302;8.120;2023-08-24T07:27:17;20.00;99.90
19044;DHT22;9654;52.302;8.120;2023-08-24T07:29:45;20.10;99.90
19044;DHT22;9654;52.302;8.120;2023-08-24T07:32:12;20.10;99.90
19044;DHT22;9654;52.302;8.120;2023-08-24T07:34:39;20.10;99.90
19044;DHT22;9654;52.302;8.120;2023-08-24T07:37:06;20.20;99.90
19044;DHT22;9654;52.302;8.120;2023-08-24T07:39:33;20.20;99.90
19044;DHT22;9654;52.302;8.120;2023-08-24T07:42:00;20.20;99.90
19044;DHT22;9654;52.302;8.120;2023-08-24T07:44:26;20.30;99.90
19044;DHT22;9654;52.302;8.120;2023-08-24T07:46:54;20.40;99.90
19044;DHT22;9654;52.302;8.120;2023-08-24T07:49:21;20.40;99.90
19044;DHT22;9654;52.302;8.120;2023-08-24T07:51:48;20.50;99.90
19044;DHT22;9654;52.302;8.120;2023-08-24T07:54:15;20.60;99.90
19044;DHT22;9654;52.302;8.120;2023-08-24T07:56:42;20.80;99.90
19044;DHT22;9654;52.302;8.120;2023-08-24T07:59:09;21.10;99.90
19044;DHT22;9654;52.302;8.120;2023-08-24T08:01:36;21.10;99.90
19044;DHT22;9654;52.302;8.120;2023-08-24T08:04:04;21.30;99.90
19044;DHT22;9654;52.302;8.120;2023-08-24T08:06:31;21.50;99.90
19044;DHT22;9654;52.302;8.120;2023-08-24T08:08:58;21.70;99.90
19044;DHT22;9654;52.302;8.120;2023-08-24T08:11:24;21.80;99.90
19044;DHT22;9654;52.302;8.120;2023-08-24T08:13:51;22.00;99.90
19044;DHT22;9654;52.302;8.120;2023-08-24T08:16:18;22.20;99.90
19044;DHT22;9654;52.302;8.120;2023-08-24T08:18:45;22.30;99.90
19044;DHT22;9654;52.302;8.120;2023-08-24T08:21:15;22.50;99.90
19044;DHT22;9654;52.302;8.120;2023-08-24T08:23:43;22.60;99.90
19044;DHT22;9654;52.302;8.120;2023-08-24T08:26:10;22.70;1.00
19044;DHT22;9654;52.302;8.120;2023-08-24T08:28:37;22.80;1.00
19044;DHT22;9654;52.302;8.120;2023-08-24T08:31:04;22.90;1.00
19044;DHT22;9654;52.302;8.120;2023-08-24T08:33:31;22.90;1.00
19044;DHT22;9654;52.302;8.120;2023-08-24T08:35:59;23.00;1.00
19044;DHT22;9654;52.302;8.120;2023-08-24T08:38:28;23.10;1.00
19044;DHT22;9654;52.302;8.120;2023-08-24T08:41:00;23.30;99.90
19044;DHT22;9654;52.302;8.120;2023-08-24T08:43:28;23.40;99.90
19044;DHT22;9654;52.302;8.120;2023-08-24T08:45:56;23.60;99.90
19044;DHT22;9654;52.302;8.120;2023-08-24T08:48:23;23.70;99.90
19044;DHT22;9654;52.302;8.120;2023-08-24T08:50:52;23.90;3.80
19044;DHT22;9654;52.302;8.120;2023-08-24T08:53:22;24.00;1.00
19044;DHT22;9654;52.302;8.120;2023-08-24T08:55:52;23.90;99.90
19044;DHT22;9654;52.302;8.120;2023-08-24T08:58:20;23.80;99.90
19044;DHT22;9654;52.302;8.120;2023-08-24T09:00:47;23.90;1.00
19044;DHT22;9654;52.302;8.120;2023-08-24T09:03:17;24.00;99.90
19044;DHT22;9654;52.302;8.120;2023-08-24T09:05:44;24.10;1.00
19044;DHT22;9654;52.302;8.120;2023-08-24T09:08:13;24.20;99.90
19044;DHT22;9654;52.302;8.120;2023-08-24T09:10:41;24.20;59.80
19044;DHT22;9654;52.302;8.120;2023-08-24T09:13:09;24.20;1.00
19044;DHT22;9654;52.302;8.120;2023-08-24T09:15:35;24.30;1.00
19044;DHT22;9654;52.302;8.120;2023-08-24T09:18:03;24.40;1.00
19044;DHT22;9654;52.302;8.120;2023-08-24T09:20:30;24.60;99.90
19044;DHT22;9654;52.302;8.120;2023-08-24T09:22:57;24.80;99.90
19044;DHT22;9654;52.302;8.120;2023-08-24T09:25:24;24.90;1.00
19044;DHT22;9654;52.302;8.120;2023-08-24T09:27:58;25.10;1.00
19044;DHT22;9654;52.302;8.120;2023-08-24T09:30:30;25.20;1.00
19044;DHT22;9654;52.302;8.120;2023-08-24T09:33:01;25.50;99.90
19044;DHT22;9654;52.302;8.120;2023-08-24T09:35:29;25.50;1.00
19044;DHT22;9654;52.302;8.120;2023-08-24T09:37:56;25.70;1.00
19044;DHT22;9654;52.302;8.120;2023-08-24T09:40:24;25.80;99.90
19044;DHT22;9654;52.302;8.120;2023-08-24T09:42:51;25.80;1.00
19044;DHT22;9654;52.302;8.120;2023-08-24T09:45:18;25.80;99.90
19044;DHT22;9654;52.302;8.120;2023-08-24T09:47:49;26.00;99.90
19044;DHT22;9654;52.302;8.120;2023-08-24T09:50:16;26.20;99.90
19044;DHT22;9654;52.302;8.120;2023-08-24T09:52:43;26.30;99.90
19044;DHT22;9654;52.302;8.120;2023-08-24T09:55:11;26.50;1.00
19044;DHT22;9654;52.302;8.120;2023-08-24T09:57:40;26.60;1.00
19044;DHT22;9654;52.302;8.120;2023-08-24T10:00:08;26.70;1.00
19044;DHT22;9654;52.302;8.120;2023-08-24T10:02:40;26.70;1.00
19044;DHT22;9654;52.302;8.120;2023-08-24T10:05:13;26.70;1.00
19044;DHT22;9654;52.302;8.120;2023-08-24T10:07:47;26.90;99.90
19044;DHT22;9654;52.302;8.120;2023-08-24T10:10:16;27.00;99.90
19044;DHT22;9654;52.302;8.120;2023-08-24T10:12:47;27.00;99.90
19044;DHT22;9654;52.302;8.120;2023-08-24T10:15:17;27.20;99.90
19044;DHT22;9654;52.302;8.120;2023-08-24T10:17:45;27.30;1.00
19044;DHT22;9654;52.302;8.120;2023-08-24T10:20:14;27.40;1.00
19044;DHT22;9654;52.302;8.120;2023-08-24T10:22:42;27.40;1.00
19044;DHT22;9654;52.302;8.120;2023-08-24T10:25:09;27.40;1.00
19044;DHT22;9654;52.302;8.120;2023-08-24T10:27:36;27.30;1.00
19044;DHT22;9654;52.302;8.120;2023-08-24T10:30:10;27.40;1.00
19044;DHT22;9654;52.302;8.120;2023-08-24T10:32:37;27.60;1.00
19044;DHT22;9654;52.302;8.120;2023-08-24T10:35:05;27.80;1.00
19044;DHT22;9654;52.302;8.120;2023-08-24T10:37:34;28.00;1.00
19044;DHT22;9654;52.302;8.120;2023-08-24T10:40:01;28.20;1.00
19044;DHT22;9654;52.302;8.120;2023-08-24T10:42:43;28.20;1.00
19044;DHT22;9654;52.302;8.120;2023-08-24T10:45:10;28.20;1.00
19044;DHT22;9654;52.302;8.120;2023-08-24T10:47:44;28.40;1.00
19044;DHT22;9654;52.302;8.120;2023-08-24T10:50:12;28.60;1.00
19044;DHT22;9654;52.302;8.120;2023-08-24T10:52:43;28.70;1.00
19044;DHT22;9654;52.302;8.120;2023-08-24T10:55:22;28.80;1.00
19044;DHT22;9654;52.302;8.120;2023-08-24T10:57:56;28.80;1.00
19044;DHT22;9654;52.302;8.120;2023-08-24T11:00:26;28.80;1.00
19044;DHT22;9654;52.302;8.120;2023-08-24T11:02:53;28.90;1.00
19044;DHT22;9654;52.302;8.120;2023-08-24T11:05:21;28.80;1.00
19044;DHT22;9654;52.302;8.120;2023-08-24T11:07:50;28.90;1.00
19044;DHT22;9654;52.302;8.120;2023-08-24T11:10:18;29.10;1.00
19044;DHT22;9654;52.302;8.120;2023-08-24T11:13:11;29.20;1.00
19044;DHT22;9654;52.302;8.120;2023-08-24T11:15:40;29.30;1.00
19044;DHT22;9654;52.302;8.120;2023-08-24T11:18:20;29.40;1.00
19044;DHT22;9654;52.302;8.120;2023-08-24T11:20:48;29.30;1.00
19044;DHT22;9654;52.302;8.120;2023-08-24T11:23:17;29.20;1.00
19044;DHT22;9654;52.302;8.120;2023-08-24T11:25:45;29.00;1.00
19044;DHT22;9654;52.302;8.120;2023-08-24T11:28:16;29.00;1.00
19044;DHT22;9654;52.302;8.120;2023-08-24T11:30:44;29.10;1.00
19044;DHT22;9654;52.302;8.120;2023-08-24T11:33:12;29.20;1.00
19044;DHT22;9654;52.302;8.120;2023-08-24T11:35:42;29.30;1.00
19044;DHT22;9654;52.302;8.120;2023-08-24T11:38:09;29.30;1.00
19044;DHT22;9654;52.302;8.120;2023-08-24T11:40:39;29.50;1.00
19044;DHT22;9654;52.302;8.120;2023-08-24T11:43:06;29.40;1.00
19044;DHT22;9654;52.302;8.120;2023-08-24T11:45:34;29.60;1.00
19044;DHT22;9654;52.302;8.120;2023-08-24T11:48:03;29.70;1.00
19044;DHT22;9654;52.302;8.120;2023-08-24T11:50:30;29.90;1.00
19044;DHT22;9654;52.302;8.120;2023-08-24T11:52:58;30.00;1.00
19044;DHT22;9654;52.302;8.120;2023-08-24T11:55:26;30.00;1.00
19044;DHT22;9654;52.302;8.120;2023-08-24T11:57:54;29.90;1.00
19044;DHT22;9654;52.302;8.120;2023-08-24T12:00:22;29.80;1.00
19044;DHT22;9654;52.302;8.120;2023-08-24T12:02:49;29.70;1.00
19044;DHT22;9654;52.302;8.120;2023-08-24T12:05:25;29.60;1.00
19044;DHT22;9654;52.302;8.120;2023-08-24T12:07:54;29.60;1.00
19044;DHT22;9654;52.302;8.120;2023-08-24T12:10:21;29.40;1.00
19044;DHT22;9654;52.302;8.120;2023-08-24T12:12:49;29.40;1.00
19044;DHT22;9654;52.302;8.120;2023-08-24T12:15:28;29.50;1.00
19044;DHT22;9654;52.302;8.120;2023-08-24T12:17:55;29.50;1.00
19044;DHT22;9654;52.302;8.120;2023-08-24T12:20:22;29.40;1.00
19044;DHT22;9654;52.302;8.120;2023-08-24T12:22:50;29.40;1.00
19044;DHT22;9654;52.302;8.120;2023-08-24T12:25:17;29.50;1.00
19044;DHT22;9654;52.302;8.120;2023-08-24T12:27:45;29.70;1.00
19044;DHT22;9654;52.302;8.120;2023-08-24T12:30:12;29.80;1.00
19044;DHT22;9654;52.302;8.120;2023-08-24T12:32:45;29.80;1.00
19044;DHT22;9654;52.302;8.120;2023-08-24T12:35:14;29.70;1.00
19044;DHT22;9654;52.302;8.120;2023-08-24T12:37:41;29.80;1.00
19044;DHT22;9654;52.302;8.120;2023-08-24T12:40:10;29.90;1.00
19044;DHT22;9654;52.302;8.120;2023-08-24T12:42:36;30.00;1.00
19044;DHT22;9654;52.302;8.120;2023-08-24T12:45:05;30.20;1.00
19044;DHT22;9654;52.302;8.120;2023-08-24T12:47:32;30.30;1.00
19044;DHT22;9654;52.302;8.120;2023-08-24T12:50:05;30.50;1.00
19044;DHT22;9654;52.302;8.120;2023-08-24T12:52:33;30.60;1.00
19044;DHT22;9654;52.302;8.120;2023-08-24T12:55:00;30.70;1.00
19044;DHT22;9654;52.302;8.120;2023-08-24T12:57:28;30.50;1.00
19044;DHT22;9654;52.302;8.120;2023-08-24T12:59:55;30.40;1.00
19044;DHT22;9654;52.302;8.120;2023-08-24T13:02:22;30.20;1.00
19044;DHT22;9654;52.302;8.120;2023-08-24T13:04:48;30.10;1.00
19044;DHT22;9654;52.302;8.120;2023-08-24T13:07:16;30.00;1.00
19044;DHT22;9654;52.302;8.120;2023-08-24T13:09:43;29.90;1.00
19044;DHT22;9654;52.302;8.120;2023-08-24T13:12:10;29.90;1.00
19044;DHT22;9654;52.302;8.120;2023-08-24T13:14:37;29.90;1.00
19044;DHT22;9654;52.302;8.120;2023-08-24T13:17:03;29.80;1.00
19044;DHT22;9654;52.302;8.120;2023-08-24T13:19:30;29.80;1.00
19044;DHT22;9654;52.302;8.120;2023-08-24T13:21:57;29.80;1.00
19044;DHT22;9654;52.302;8.120;2023-08-24T13:24:25;29.60;1.00
19044;DHT22;9654;52.302;8.120;2023-08-24T13:26:52;29.50;1.00
19044;DHT22;9654;52.302;8.120;2023-08-24T13:29:18;29.40;1.00
19044;DHT22;9654;52.302;8.120;2023-08-24T13:31:45;29.40;1.00
19044;DHT22;9654;52.302;8.120;2023-08-24T13:34:12;29.50;1.00
19044;DHT22;9654;52.302;8.120;2023-08-24T13:36:40;29.50;1.00
19044;DHT22;9654;52.302;8.120;2023-08-24T13:39:06;29.50;1.00
19044;DHT22;9654;52.302;8.120;2023-08-24T13:41:34;29.40;1.00
19044;DHT22;9654;52.302;8.120;2023-08-24T13:44:01;29.40;1.00
19044;DHT22;9654;52.302;8.120;2023-08-24T13:46:28;29.40;1.00
19044;DHT22;9654;52.302;8.120;2023-08-24T13:48:55;29.40;5.00
19044;DHT22;9654;52.302;8.120;2023-08-24T13:51:21;29.40;1.00
19044;DHT22;9654;52.302;8.120;2023-08-24T13:53:49;29.40;1.00
19044;DHT22;9654;52.302;8.120;2023-08-24T13:56:16;29.30;1.00
19044;DHT22;9654;52.302;8.120;2023-08-24T13:58:44;29.40;1.00
19044;DHT22;9654;52.302;8.120;2023-08-24T14:01:12;29.50;48.30
19044;DHT22;9654;52.302;8.120;2023-08-24T14:03:39;29.70;1.00
19044;DHT22;9654;52.302;8.120;2023-08-24T14:06:08;29.80;1.00
19044;DHT22;9654;52.302;8.120;2023-08-24T14:08:36;29.80;1.00
19044;DHT22;9654;52.302;8.120;2023-08-24T14:11:02;29.80;1.00
19044;DHT22;9654;52.302;8.120;2023-08-24T14:13:29;29.70;1.00
19044;DHT22;9654;52.302;8.120;2023-08-24T14:15:58;29.40;1.00
19044;DHT22;9654;52.302;8.120;2023-08-24T14:18:25;29.20;1.00
19044;DHT22;9654;52.302;8.120;2023-08-24T14:20:52;29.10;1.00
19044;DHT22;9654;52.302;8.120;2023-08-24T14:23:19;29.10;1.00
19044;DHT22;9654;52.302;8.120;2023-08-24T14:25:46;29.10;1.00
19044;DHT22;9654;52.302;8.120;2023-08-24T14:28:19;29.00;1.00
19044;DHT22;9654;52.302;8.120;2023-08-24T14:30:47;29.00;1.00
19044;DHT22;9654;52.302;8.120;2023-08-24T14:33:15;28.90;1.00
19044;DHT22;9654;52.302;8.120;2023-08-24T14:35:50;28.80;1.00
19044;DHT22;9654;52.302;8.120;2023-08-24T14:38:16;28.70;1.00
19044;DHT22;9654;52.302;8.120;2023-08-24T14:40:43;28.50;1.00
19044;DHT22;9654;52.302;8.120;2023-08-24T14:43:10;28.40;1.00
19044;DHT22;9654;52.302;8.120;2023-08-24T14:45:37;28.30;1.00
19044;DHT22;9654;52.302;8.120;2023-08-24T14:48:04;28.20;99.40
19044;DHT22;9654;52.302;8.120;2023-08-24T14:50:32;28.10;90.30
19044;DHT22;9654;52.302;8.120;2023-08-24T14:52:59;27.90;99.90
19044;DHT22;9654;52.302;8.120;2023-08-24T14:55:26;27.80;99.90
19044;DHT22;9654;52.302;8.120;2023-08-24T14:57:52;27.70;99.90
19044;DHT22;9654;52.302;8.120;2023-08-24T15:00:20;27.70;1.00
19044;DHT22;9654;52.302;8.120;2023-08-24T15:02:47;27.60;2.90
19044;DHT22;9654;52.302;8.120;2023-08-24T15:05:14;27.60;1.00
19044;DHT22;9654;52.302;8.120;2023-08-24T15:07:42;27.40;99.90
19044;DHT22;9654;52.302;8.120;2023-08-24T15:10:09;27.20;99.90
19044;DHT22;9654;52.302;8.120;2023-08-24T15:12:35;27.10;99.90
19044;DHT22;9654;52.302;8.120;2023-08-24T15:15:03;27.00;1.00
19044;DHT22;9654;52.302;8.120;2023-08-24T15:17:30;26.80;1.00
19044;DHT22;9654;52.302;8.120;2023-08-24T15:19:57;26.80;1.00
19044;DHT22;9654;52.302;8.120;2023-08-24T15:22:24;26.70;1.00
19044;DHT22;9654;52.302;8.120;2023-08-24T15:24:55;26.70;1.00
19044;DHT22;9654;52.302;8.120;2023-08-24T15:27:22;26.70;1.00
19044;DHT22;9654;52.302;8.120;2023-08-24T15:29:49;26.60;1.00
19044;DHT22;9654;52.302;8.120;2023-08-24T15:32:16;26.50;1.00
19044;DHT22;9654;52.302;8.120;2023-08-24T15:34:43;26.30;1.00
19044;DHT22;9654;52.302;8.120;2023-08-24T15:37:10;26.30;1.00
19044;DHT22;9654;52.302;8.120;2023-08-24T15:39:38;26.10;1.00
19044;DHT22;9654;52.302;8.120;2023-08-24T15:42:07;26.10;99.90
19044;DHT22;9654;52.302;8.120;2023-08-24T15:44:34;26.00;1.00
19044;DHT22;9654;52.302;8.120;2023-08-24T15:47:01;26.00;99.90
19044;DHT22;9654;52.302;8.120;2023-08-24T15:49:28;26.00;99.90
19044;DHT22;9654;52.302;8.120;2023-08-24T15:51:55;26.00;1.00
19044;DHT22;9654;52.302;8.120;2023-08-24T15:54:21;26.10;1.00
19044;DHT22;9654;52.302;8.120;2023-08-24T15:56:50;26.10;99.90